Scroll down
FLIGHT INFORMATION
British Airways

BAW268

At Arrival Gate

KLAX
 EGLL
DATE: 2019-09-06
GATE: 132
GATE DEPARTURE: 04:40
TAKEOFF: 04:52
DATE: 2019-09-06
GATE: 544
LANDING: 14:21
GATE ARRIVAL: 14:27
FLIGHT DATA
Crew: 
Speed: 
519 kts
Altitude: 
37,009 ft
Stage Length: 
4,729.6 nm
Block Time: 
9.8 hrs
Flight Time: 
9.5 hrs
Fuel Used: 
214,833 lb
Cleared Route: KLAX DLREY KLIPR KEGGS COOPP ORCKA NNAVY BLAZN LAS BAWER LARVE EKR RWF SSM VBS BAREE RIKAL 5350N 5540N 5530N 5420N MALOT GISTI SLANY STU NUMPO OKESI BEDEK NIGIT LLW03 OCK EGLL
TRACK DATA
50,000 ft 1,000 kts
AIRCRAFT INFO AND CUMULATIVE STATS
Aircraft Type: 
B744
Registration: 
SELCAL: 
AKQS
MSN/LN: 
25811 / 1018
Operator: 
Total Flights: 
5
Total Block Time: 
38.2 hrs
Total Flight Time: 
36.4 hrs
Total Fuel Time: 
832,927 lb
DATALINK LOG | Newest first | Current as of: 2020-12-05 22:04:43
LABEL SEQUENCE CONTENT Dn/Up
QD284314:27 51.3▼ Dn
QC212414:21▼ Dn
GA5816GATE 544▲ Up
GR5229EGLL 14:14 MAAS 01 YP/UM 00/01 WCHR/S/C 02/00/00▼ Dn
2U5816EGLL 061350Z AUTO 24014KT 9999 BKN022 17/12 Q1020 NOSIG▲ Up
2S5240EGLL▼ Dn
QB535804:52▼ Dn
QA415204:40 266.1▼ Dn
2U3857KLAX 060353Z 25006KT 10SM CLR 23/16 A2997 RMK AO2 SLP147 T02330161▲ Up
2S3458KLAX▼ Dn
A33551CLEARED TO EGLL VIA ORCKA3 LAS BAWER LARVE EKR RWF SSM VBS BAREE N505A RIKAL 5300N/05000W 5500N/04000W 5500N/03000W 5400N/02000W MALOT GISTI SLANY UL9 STU UP2 NIGIT NIGIT1H. SQUAWK 3135.▲ Up
2U3503EGLL 060420Z AUTO 21007KT 9999 NCD 10/08 Q1025 NOSIG▲ Up
2S3000EGLL▼ Dn
Q03353[LINK ACK]▲ Up
Q02926[LINK TEST]▼ Dn


AIRCRAFT HISTORY
FLIGHT DATE FLIGHT NO. ORIGIN DESTINATION CLEARED ROUTE BLOCK TIME FLIGHT TIME FUEL USED PILOT
2020-08-02BAW8022KJFK KBOS KJFK MERIT KBOS1.2 hrs0.8 hrs24,557 lbKevin Hall
2019-09-11BAW175EGLL KJFK EGLL D256G D261K WODNB D101H CPT KENET GAVGO DIKAS STU SLANY MALOT 5330N 5240N 5050N ELSIR TUSKY PLYMM PVD TRAIT PARCH CCC ROBER CRAIL CAPIT KJFK7.8 hrs7.3 hrs172,495 lbKyle Rodgers
2019-09-06BAW268KLAX EGLL KLAX DLREY KLIPR KEGGS COOPP ORCKA NNAVY BLAZN LAS BAWER LARVE EKR RWF SSM VBS BAREE RIKAL 5350N 5540N 5530N 5420N MALOT GISTI SLANY STU NUMPO OKESI BEDEK NIGIT LLW03 OCK EGLL9.8 hrs9.5 hrs214,833 lbKyle Rodgers
2019-09-05BAW269EGLL KLAX EGLL D256G D261K WODNB D101H CPT KENET GAVGO MALBY DIKAS MEDOG LANON BADSI LIPGO DUB OLAPO SLG MOLAK NIBOG BEGID BILTO 5820N 6030N 6140N 6150N NIFTY MUSLO RODBO YLA YSK YPO YTL WG DIK BOY BPI TCH ILC KOPLE BOGET MEETT WATSS UPDOC KLAX11.6 hrs11.2 hrs243,934 lbKyle Rodgers
2019-09-05BAW218KDEN EGLL KDEN GISTT KIDNG GINTH SPYCE TURBN CHICN KKIMM BRYCC TAYOT KP87A ABR YQT YMO JOVIE DORYY 5750N 5740N 5730N 5720N PIKIL SOVED LUTOV KELLY CASEL PENIL WAL EKLAD MOGTA NANTI NUGRA TOBID SOPIT WCONB BNN EGLL7.9 hrs7.6 hrs177,107 lbKyle Rodgers